Corn Creek, Nevada
Current Conditions -  °F | °C
As of 4:56 AM on Friday 28 Nov 2014 (Local Time) from KHND Reporting Station
Clear Clear  
Wind Chill: 34°   Ceiling: Unl
Heat Index: 39°   Visibility: 10mi
Dew Point: 18°   Wind: 7mph
Humidity: 43%   Direction: 180°S
Pressure: 30.12"   Gusts: NA
Location:  35.8437°N, 115.134°W
Report Text: KHND 281256Z AUTO 18006KT 10SM CLR 04/M08 A3012 RMK AO2 T00381077 SLP203
Loading
Personal Weather Stations






























Interactive Weather Map New forecast layout! Learn more

10-Day Weather Forecast

Advertisements
Track Severe Weather on mobile